Archival Weather

Heathrow

London, United Kingdom (EGLL)

Report from: Tuesday, June 18, 2024 4:50 AM BST
Current time: Monday, July 22, 2024 11:17 AM BST

Current weather – Weather history – Daily summaries
Weather forecast

Temperature13.0°C (55.4°F)
Dew point11.0°C (51.8°F)
Winds 3 kts (1.5 m/s, 3.5 mph) Vrb
Winds variableWinds variable from North-Northwest (330°) to Northeast (40°)
Visibility6.2 mi. (10 km)
Clouds Sky clear
Altimeter29.91 in.Hg (1013 mB)
Relative humidity88 %
Density altitude-44 ft. (-14 m)
Remarks Fully automated report
Corrected report
No clouds detected
No significant changes expected in the next two hours
Flight conditions Visual Meteorological Conditions
Raw dataCOR EGLL 180350Z AUTO 01003KT 330V040 9999 NCD 13/11 Q1013 NOSIG
An error has occurred. This application may no longer respond until reloaded. Reload 🗙